sensor_id;sensor_type;location;lat;lon;timestamp;pressure;altitude;pressure_sealevel;temperature;humidity
72226;BME280;60130;52.250;5.048;2023-04-09T00:00:00;670.5;;;9.1;0.0
72226;BME280;60130;52.250;5.048;2023-04-09T00:05:00;670.3;;;9.1;0.0
72226;BME280;60130;52.250;5.048;2023-04-09T00:10:00;670.3;;;9.0;0.0
72226;BME280;60130;52.250;5.048;2023-04-09T00:15:00;670.5;;;9.1;0.0
72226;BME280;60130;52.250;5.048;2023-04-09T00:20:00;670.5;;;9.1;0.0
72226;BME280;60130;52.250;5.048;2023-04-09T00:25:00;670.4;;;9.1;0.0
72226;BME280;60130;52.250;5.048;2023-04-09T00:30:00;670.5;;;9.2;0.0
72226;BME280;60130;52.250;5.048;2023-04-09T00:35:00;670.5;;;9.2;0.0
72226;BME280;60130;52.250;5.048;2023-04-09T00:40:00;670.8;;;9.2;0.0
72226;BME280;60130;52.250;5.048;2023-04-09T00:45:00;670.5;;;9.3;0.0
72226;BME280;60130;52.250;5.048;2023-04-09T00:50:00;670.6;;;9.3;0.0
72226;BME280;60130;52.250;5.048;2023-04-09T00:55:03;670.6;;;9.3;0.0
72226;BME280;60130;52.250;5.048;2023-04-09T01:00:00;670.8;;;9.3;0.0
72226;BME280;60130;52.250;5.048;2023-04-09T01:05:00;670.8;;;9.3;0.0
72226;BME280;60130;52.250;5.048;2023-04-09T01:10:06;670.5;;;9.3;0.0
72226;BME280;60130;52.250;5.048;2023-04-09T01:15:04;670.5;;;9.3;0.0
72226;BME280;60130;52.250;5.048;2023-04-09T01:20:02;670.6;;;9.3;0.0
72226;BME280;60130;52.250;5.048;2023-04-09T01:25:06;670.6;;;9.3;0.0
72226;BME280;60130;52.250;5.048;2023-04-09T01:30:03;670.9;;;9.3;0.0
72226;BME280;60130;52.250;5.048;2023-04-09T01:35:01;670.7;;;9.3;0.0
72226;BME280;60130;52.250;5.048;2023-04-09T01:40:00;670.7;;;9.4;0.0
72226;BME280;60130;52.250;5.048;2023-04-09T01:45:01;670.7;;;9.4;0.0
72226;BME280;60130;52.250;5.048;2023-04-09T01:50:00;670.8;;;9.4;0.0
72226;BME280;60130;52.250;5.048;2023-04-09T01:55:00;670.7;;;9.4;0.0
72226;BME280;60130;52.250;5.048;2023-04-09T02:00:00;670.8;;;9.5;0.0
72226;BME280;60130;52.250;5.048;2023-04-09T02:05:02;671.0;;;9.5;0.0
72226;BME280;60130;52.250;5.048;2023-04-09T02:10:00;670.8;;;9.5;0.0
72226;BME280;60130;52.250;5.048;2023-04-09T02:15:01;670.6;;;9.5;0.0
72226;BME280;60130;52.250;5.048;2023-04-09T02:20:00;670.9;;;9.6;0.0
72226;BME280;60130;52.250;5.048;2023-04-09T02:25:00;670.8;;;9.7;0.0
72226;BME280;60130;52.250;5.048;2023-04-09T02:30:00;671.1;;;9.7;0.0
72226;BME280;60130;52.250;5.048;2023-04-09T02:35:00;671.1;;;9.7;0.0
72226;BME280;60130;52.250;5.048;2023-04-09T02:40:00;671.3;;;9.7;0.0
72226;BME280;60130;52.250;5.048;2023-04-09T02:45:00;671.0;;;9.6;0.0
72226;BME280;60130;52.250;5.048;2023-04-09T02:50:00;671.0;;;9.7;0.0
72226;BME280;60130;52.250;5.048;2023-04-09T02:55:00;671.1;;;9.8;0.0
72226;BME280;60130;52.250;5.048;2023-04-09T03:00:00;671.1;;;9.8;0.0
72226;BME280;60130;52.250;5.048;2023-04-09T03:05:00;670.8;;;9.7;0.0
72226;BME280;60130;52.250;5.048;2023-04-09T03:10:00;671.0;;;9.7;0.0
72226;BME280;60130;52.250;5.048;2023-04-09T03:15:00;670.8;;;9.7;0.0
72226;BME280;60130;52.250;5.048;2023-04-09T03:20:00;671.2;;;9.6;0.0
72226;BME280;60130;52.250;5.048;2023-04-09T03:25:00;670.8;;;9.7;0.0
72226;BME280;60130;52.250;5.048;2023-04-09T03:30:00;671.0;;;9.6;0.0
72226;BME280;60130;52.250;5.048;2023-04-09T03:35:00;671.2;;;9.8;0.0
72226;BME280;60130;52.250;5.048;2023-04-09T03:40:00;671.6;;;9.9;0.0
72226;BME280;60130;52.250;5.048;2023-04-09T03:45:00;671.3;;;9.9;0.0
72226;BME280;60130;52.250;5.048;2023-04-09T03:50:00;671.2;;;9.7;0.0
72226;BME280;60130;52.250;5.048;2023-04-09T03:55:01;671.1;;;9.7;0.0
72226;BME280;60130;52.250;5.048;2023-04-09T04:00:00;670.9;;;9.6;0.0
72226;BME280;60130;52.250;5.048;2023-04-09T04:05:00;670.8;;;9.5;0.0
72226;BME280;60130;52.250;5.048;2023-04-09T04:10:02;670.9;;;9.5;0.0
72226;BME280;60130;52.250;5.048;2023-04-09T04:15:00;670.7;;;9.5;0.0
72226;BME280;60130;52.250;5.048;2023-04-09T04:20:00;670.8;;;9.5;0.0
72226;BME280;60130;52.250;5.048;2023-04-09T04:25:00;670.9;;;9.5;0.0
72226;BME280;60130;52.250;5.048;2023-04-09T04:30:00;670.8;;;9.5;0.0
72226;BME280;60130;52.250;5.048;2023-04-09T04:35:00;671.0;;;9.5;0.0
72226;BME280;60130;52.250;5.048;2023-04-09T04:40:00;670.8;;;9.5;0.0
72226;BME280;60130;52.250;5.048;2023-04-09T04:45:00;671.0;;;9.5;0.0
72226;BME280;60130;52.250;5.048;2023-04-09T04:50:00;670.9;;;9.6;0.0
72226;BME280;60130;52.250;5.048;2023-04-09T04:55:00;670.9;;;9.6;0.0
72226;BME280;60130;52.250;5.048;2023-04-09T05:00:00;670.8;;;9.5;0.0
72226;BME280;60130;52.250;5.048;2023-04-09T05:05:00;670.9;;;9.6;0.0
72226;BME280;60130;52.250;5.048;2023-04-09T05:10:00;670.9;;;9.6;0.0
72226;BME280;60130;52.250;5.048;2023-04-09T05:15:00;671.0;;;9.6;0.0
72226;BME280;60130;52.250;5.048;2023-04-09T05:20:00;671.0;;;9.7;0.0
72226;BME280;60130;52.250;5.048;2023-04-09T05:25:00;671.1;;;9.7;0.0
72226;BME280;60130;52.250;5.048;2023-04-09T05:30:00;670.9;;;9.8;0.0
72226;BME280;60130;52.250;5.048;2023-04-09T05:35:00;671.1;;;9.7;0.0
72226;BME280;60130;52.250;5.048;2023-04-09T05:40:00;670.9;;;9.8;0.0
72226;BME280;60130;52.250;5.048;2023-04-09T05:45:00;671.2;;;9.8;0.0
72226;BME280;60130;52.250;5.048;2023-04-09T05:50:00;670.8;;;9.7;0.0
72226;BME280;60130;52.250;5.048;2023-04-09T05:55:00;671.1;;;9.7;0.0
72226;BME280;60130;52.250;5.048;2023-04-09T06:00:00;671.1;;;9.8;0.0
72226;BME280;60130;52.250;5.048;2023-04-09T06:05:00;671.2;;;9.8;0.0
72226;BME280;60130;52.250;5.048;2023-04-09T06:10:00;671.1;;;9.7;0.0
72226;BME280;60130;52.250;5.048;2023-04-09T06:15:00;670.9;;;9.7;0.0
72226;BME280;60130;52.250;5.048;2023-04-09T06:20:00;671.1;;;9.7;0.0
72226;BME280;60130;52.250;5.048;2023-04-09T06:25:00;671.1;;;9.8;0.0
72226;BME280;60130;52.250;5.048;2023-04-09T06:30:00;671.1;;;9.8;0.0
72226;BME280;60130;52.250;5.048;2023-04-09T06:35:00;671.1;;;9.9;0.0
72226;BME280;60130;52.250;5.048;2023-04-09T06:40:00;671.4;;;10.0;0.0
72226;BME280;60130;52.250;5.048;2023-04-09T06:45:00;671.6;;;10.0;0.0
72226;BME280;60130;52.250;5.048;2023-04-09T06:50:00;671.4;;;10.0;0.0
72226;BME280;60130;52.250;5.048;2023-04-09T06:55:00;671.1;;;9.9;0.0
72226;BME280;60130;52.250;5.048;2023-04-09T07:00:00;671.2;;;9.8;0.0
72226;BME280;60130;52.250;5.048;2023-04-09T07:05:00;671.2;;;9.8;0.0
72226;BME280;60130;52.250;5.048;2023-04-09T07:10:00;671.2;;;10.0;0.0
72226;BME280;60130;52.250;5.048;2023-04-09T07:15:01;671.2;;;10.0;0.0
72226;BME280;60130;52.250;5.048;2023-04-09T07:20:00;671.3;;;10.1;0.0
72226;BME280;60130;52.250;5.048;2023-04-09T07:25:00;671.5;;;10.1;0.0
72226;BME280;60130;52.250;5.048;2023-04-09T07:30:00;671.6;;;10.1;0.0
72226;BME280;60130;52.250;5.048;2023-04-09T07:35:01;671.5;;;10.3;0.0
72226;BME280;60130;52.250;5.048;2023-04-09T07:40:00;671.8;;;10.3;0.0
72226;BME280;60130;52.250;5.048;2023-04-09T07:45:00;671.7;;;10.3;0.0
72226;BME280;60130;52.250;5.048;2023-04-09T07:50:00;671.7;;;10.3;0.0
72226;BME280;60130;52.250;5.048;2023-04-09T07:55:01;671.7;;;10.2;0.0
72226;BME280;60130;52.250;5.048;2023-04-09T08:00:00;671.9;;;10.2;0.0
72226;BME280;60130;52.250;5.048;2023-04-09T08:05:00;671.6;;;10.4;0.0
72226;BME280;60130;52.250;5.048;2023-04-09T08:10:00;671.6;;;10.4;0.0
72226;BME280;60130;52.250;5.048;2023-04-09T08:15:00;671.8;;;10.3;0.0
72226;BME280;60130;52.250;5.048;2023-04-09T08:20:00;671.9;;;10.4;0.0
72226;BME280;60130;52.250;5.048;2023-04-09T08:25:00;672.2;;;10.8;0.0
72226;BME280;60130;52.250;5.048;2023-04-09T08:30:00;672.9;;;11.1;0.0
72226;BME280;60130;52.250;5.048;2023-04-09T08:35:00;672.8;;;11.1;0.0
72226;BME280;60130;52.250;5.048;2023-04-09T08:40:00;673.0;;;11.4;0.0
72226;BME280;60130;52.250;5.048;2023-04-09T08:45:02;673.2;;;11.5;0.0
72226;BME280;60130;52.250;5.048;2023-04-09T08:50:00;673.3;;;11.6;0.0
72226;BME280;60130;52.250;5.048;2023-04-09T08:55:00;673.4;;;11.6;0.0
72226;BME280;60130;52.250;5.048;2023-04-09T09:00:00;673.8;;;12.0;0.0
72226;BME280;60130;52.250;5.048;2023-04-09T09:05:00;674.1;;;12.0;0.0
72226;BME280;60130;52.250;5.048;2023-04-09T09:10:00;674.4;;;12.4;0.0
72226;BME280;60130;52.250;5.048;2023-04-09T09:15:00;675.1;;;12.9;0.0
72226;BME280;60130;52.250;5.048;2023-04-09T09:20:17;675.7;;;13.4;0.0
72226;BME280;60130;52.250;5.048;2023-04-09T09:25:00;675.2;;;13.2;0.0
72226;BME280;60130;52.250;5.048;2023-04-09T09:30:01;675.5;;;13.2;0.0
72226;BME280;60130;52.250;5.048;2023-04-09T09:35:01;675.7;;;13.4;0.0
72226;BME280;60130;52.250;5.048;2023-04-09T09:40:00;675.5;;;13.4;0.0
72226;BME280;60130;52.250;5.048;2023-04-09T09:45:00;675.8;;;13.6;0.0
72226;BME280;60130;52.250;5.048;2023-04-09T09:50:01;676.1;;;13.9;0.0
72226;BME280;60130;52.250;5.048;2023-04-09T09:55:02;676.4;;;14.0;0.0
72226;BME280;60130;52.250;5.048;2023-04-09T10:00:01;676.9;;;14.4;0.0
72226;BME280;60130;52.250;5.048;2023-04-09T10:05:00;676.6;;;14.2;0.0
72226;BME280;60130;52.250;5.048;2023-04-09T10:10:01;676.8;;;14.5;0.0
72226;BME280;60130;52.250;5.048;2023-04-09T10:15:00;677.0;;;14.8;0.0
72226;BME280;60130;52.250;5.048;2023-04-09T10:20:06;677.3;;;14.8;0.0
72226;BME280;60130;52.250;5.048;2023-04-09T10:25:01;677.9;;;15.1;0.0
72226;BME280;60130;52.250;5.048;2023-04-09T10:30:00;678.2;;;15.5;0.0
72226;BME280;60130;52.250;5.048;2023-04-09T10:35:02;678.1;;;15.4;0.0
72226;BME280;60130;52.250;5.048;2023-04-09T10:40:02;678.2;;;15.5;0.0
72226;BME280;60130;52.250;5.048;2023-04-09T10:45:05;678.0;;;15.3;0.0
72226;BME280;60130;52.250;5.048;2023-04-09T10:50:13;678.2;;;15.5;0.0
72226;BME280;60130;52.250;5.048;2023-04-09T10:55:00;678.9;;;16.1;0.0
72226;BME280;60130;52.250;5.048;2023-04-09T11:00:00;678.9;;;16.2;0.0
72226;BME280;60130;52.250;5.048;2023-04-09T11:05:06;679.5;;;16.6;0.0
72226;BME280;60130;52.250;5.048;2023-04-09T11:10:00;679.7;;;16.8;0.0
72226;BME280;60130;52.250;5.048;2023-04-09T11:15:00;679.6;;;16.7;0.0
72226;BME280;60130;52.250;5.048;2023-04-09T11:20:01;679.0;;;16.2;0.0
72226;BME280;60130;52.250;5.048;2023-04-09T11:25:00;678.8;;;15.9;0.0
72226;BME280;60130;52.250;5.048;2023-04-09T11:30:00;678.4;;;16.0;0.0
72226;BME280;60130;52.250;5.048;2023-04-09T11:35:00;679.5;;;16.6;0.0
72226;BME280;60130;52.250;5.048;2023-04-09T11:40:00;680.0;;;17.1;0.0
72226;BME280;60130;52.250;5.048;2023-04-09T11:45:01;679.7;;;16.8;0.0
72226;BME280;60130;52.250;5.048;2023-04-09T11:50:00;679.1;;;16.3;0.0
72226;BME280;60130;52.250;5.048;2023-04-09T11:55:00;679.6;;;16.5;0.0
72226;BME280;60130;52.250;5.048;2023-04-09T12:00:04;679.8;;;16.7;0.0
72226;BME280;60130;52.250;5.048;2023-04-09T12:05:02;680.0;;;17.0;0.0
72226;BME280;60130;52.250;5.048;2023-04-09T12:10:03;679.8;;;16.9;0.0
72226;BME280;60130;52.250;5.048;2023-04-09T12:15:06;680.5;;;17.2;0.0
72226;BME280;60130;52.250;5.048;2023-04-09T12:20:00;680.5;;;17.5;0.0
72226;BME280;60130;52.250;5.048;2023-04-09T12:25:00;680.7;;;17.4;0.0
72226;BME280;60130;52.250;5.048;2023-04-09T12:30:00;680.8;;;17.6;0.0
72226;BME280;60130;52.250;5.048;2023-04-09T12:35:00;681.0;;;17.9;0.0
72226;BME280;60130;52.250;5.048;2023-04-09T12:40:00;681.8;;;18.2;0.0
72226;BME280;60130;52.250;5.048;2023-04-09T12:45:00;681.6;;;18.4;0.0
72226;BME280;60130;52.250;5.048;2023-04-09T12:50:00;681.5;;;18.3;0.0
72226;BME280;60130;52.250;5.048;2023-04-09T12:55:00;682.0;;;18.5;0.0
72226;BME280;60130;52.250;5.048;2023-04-09T13:00:00;681.5;;;18.2;0.0
72226;BME280;60130;52.250;5.048;2023-04-09T13:05:00;681.9;;;18.3;0.0
72226;BME280;60130;52.250;5.048;2023-04-09T13:10:00;681.3;;;17.9;0.0
72226;BME280;60130;52.250;5.048;2023-04-09T13:15:00;681.5;;;18.1;0.0
72226;BME280;60130;52.250;5.048;2023-04-09T13:20:00;681.8;;;18.4;0.0
72226;BME280;60130;52.250;5.048;2023-04-09T13:25:00;681.7;;;18.3;0.0
72226;BME280;60130;52.250;5.048;2023-04-09T13:30:00;681.4;;;18.1;0.0
72226;BME280;60130;52.250;5.048;2023-04-09T13:35:00;681.6;;;18.3;0.0
72226;BME280;60130;52.250;5.048;2023-04-09T13:40:00;681.1;;;18.0;0.0
72226;BME280;60130;52.250;5.048;2023-04-09T13:45:00;681.2;;;17.9;0.0
72226;BME280;60130;52.250;5.048;2023-04-09T13:50:00;680.8;;;17.7;0.0
72226;BME280;60130;52.250;5.048;2023-04-09T13:55:00;680.9;;;17.8;0.0
72226;BME280;60130;52.250;5.048;2023-04-09T14:00:00;681.1;;;17.8;0.0
72226;BME280;60130;52.250;5.048;2023-04-09T14:05:00;680.7;;;17.6;0.0
72226;BME280;60130;52.250;5.048;2023-04-09T14:10:00;680.9;;;17.6;0.0
72226;BME280;60130;52.250;5.048;2023-04-09T14:15:00;681.1;;;17.8;0.0
72226;BME280;60130;52.250;5.048;2023-04-09T14:20:00;681.0;;;17.7;0.0
72226;BME280;60130;52.250;5.048;2023-04-09T14:25:00;681.1;;;17.9;0.0
72226;BME280;60130;52.250;5.048;2023-04-09T14:30:00;681.2;;;17.9;0.0
72226;BME280;60130;52.250;5.048;2023-04-09T14:35:00;681.0;;;17.9;0.0
72226;BME280;60130;52.250;5.048;2023-04-09T14:40:00;681.2;;;17.9;0.0
72226;BME280;60130;52.250;5.048;2023-04-09T14:45:00;681.5;;;18.1;0.0
72226;BME280;60130;52.250;5.048;2023-04-09T14:50:00;681.7;;;18.3;0.0
72226;BME280;60130;52.250;5.048;2023-04-09T14:55:00;681.5;;;18.2;0.0
72226;BME280;60130;52.250;5.048;2023-04-09T15:00:00;681.3;;;18.2;0.0
72226;BME280;60130;52.250;5.048;2023-04-09T15:05:00;681.8;;;18.4;0.0
72226;BME280;60130;52.250;5.048;2023-04-09T15:10:00;681.2;;;17.9;0.0
72226;BME280;60130;52.250;5.048;2023-04-09T15:15:04;680.7;;;17.5;0.0
72226;BME280;60130;52.250;5.048;2023-04-09T15:20:00;680.7;;;17.5;0.0
72226;BME280;60130;52.250;5.048;2023-04-09T15:25:00;680.9;;;17.7;0.0
72226;BME280;60130;52.250;5.048;2023-04-09T15:30:00;680.8;;;17.6;0.0
72226;BME280;60130;52.250;5.048;2023-04-09T15:35:00;680.4;;;17.2;0.0
72226;BME280;60130;52.250;5.048;2023-04-09T15:40:00;680.6;;;17.3;0.0
72226;BME280;60130;52.250;5.048;2023-04-09T15:45:00;680.8;;;17.7;0.0
72226;BME280;60130;52.250;5.048;2023-04-09T15:50:00;680.6;;;17.5;0.0
72226;BME280;60130;52.250;5.048;2023-04-09T15:55:00;680.4;;;17.4;0.0
72226;BME280;60130;52.250;5.048;2023-04-09T16:00:00;680.5;;;17.1;0.0
72226;BME280;60130;52.250;5.048;2023-04-09T16:05:00;680.2;;;17.2;0.0
72226;BME280;60130;52.250;5.048;2023-04-09T16:10:00;680.6;;;17.4;0.0
72226;BME280;60130;52.250;5.048;2023-04-09T16:15:00;679.9;;;16.8;0.0
72226;BME280;60130;52.250;5.048;2023-04-09T16:20:00;679.7;;;16.6;0.0
72226;BME280;60130;52.250;5.048;2023-04-09T16:25:00;679.3;;;16.3;0.0
72226;BME280;60130;52.250;5.048;2023-04-09T16:30:00;679.5;;;16.5;0.0
72226;BME280;60130;52.250;5.048;2023-04-09T16:35:01;679.5;;;16.5;0.0
72226;BME280;60130;52.250;5.048;2023-04-09T16:40:00;679.1;;;16.3;0.0
72226;BME280;60130;52.250;5.048;2023-04-09T16:45:00;679.0;;;16.3;0.0
72226;BME280;60130;52.250;5.048;2023-04-09T16:50:00;679.3;;;16.3;0.0
72226;BME280;60130;52.250;5.048;2023-04-09T16:55:00;679.3;;;16.3;0.0
72226;BME280;60130;52.250;5.048;2023-04-09T17:00:00;678.9;;;16.2;0.0
72226;BME280;60130;52.250;5.048;2023-04-09T17:05:00;678.9;;;16.2;0.0
72226;BME280;60130;52.250;5.048;2023-04-09T17:10:00;678.8;;;16.1;0.0
72226;BME280;60130;52.250;5.048;2023-04-09T17:15:00;679.1;;;16.1;0.0
72226;BME280;60130;52.250;5.048;2023-04-09T17:20:00;678.8;;;16.1;0.0
72226;BME280;60130;52.250;5.048;2023-04-09T17:25:00;678.8;;;15.9;0.0
72226;BME280;60130;52.250;5.048;2023-04-09T17:30:00;678.5;;;15.9;0.0
72226;BME280;60130;52.250;5.048;2023-04-09T17:35:00;678.3;;;15.5;0.0
72226;BME280;60130;52.250;5.048;2023-04-09T17:40:00;677.7;;;15.2;0.0
72226;BME280;60130;52.250;5.048;2023-04-09T17:45:00;677.8;;;15.0;0.0
72226;BME280;60130;52.250;5.048;2023-04-09T17:50:00;677.4;;;14.8;0.0
72226;BME280;60130;52.250;5.048;2023-04-09T17:55:00;677.1;;;14.5;0.0
72226;BME280;60130;52.250;5.048;2023-04-09T18:00:00;676.4;;;14.3;0.0
72226;BME280;60130;52.250;5.048;2023-04-09T18:05:00;676.3;;;14.0;0.0
72226;BME280;60130;52.250;5.048;2023-04-09T18:10:01;676.1;;;13.8;0.0
72226;BME280;60130;52.250;5.048;2023-04-09T18:15:00;676.0;;;13.7;0.0
72226;BME280;60130;52.250;5.048;2023-04-09T18:20:00;675.7;;;13.5;0.0
72226;BME280;60130;52.250;5.048;2023-04-09T18:25:00;675.5;;;13.4;0.0
72226;BME280;60130;52.250;5.048;2023-04-09T18:30:00;675.1;;;13.2;0.0
72226;BME280;60130;52.250;5.048;2023-04-09T18:35:00;675.1;;;13.0;0.0
72226;BME280;60130;52.250;5.048;2023-04-09T18:40:00;674.7;;;12.9;0.0
72226;BME280;60130;52.250;5.048;2023-04-09T18:45:00;674.5;;;12.7;0.0
72226;BME280;60130;52.250;5.048;2023-04-09T18:50:00;674.4;;;12.6;0.0
72226;BME280;60130;52.250;5.048;2023-04-09T18:55:00;674.5;;;12.5;0.0
72226;BME280;60130;52.250;5.048;2023-04-09T19:00:00;674.4;;;12.4;0.0
72226;BME280;60130;52.250;5.048;2023-04-09T19:05:00;674.1;;;12.3;0.0
72226;BME280;60130;52.250;5.048;2023-04-09T19:10:00;674.1;;;12.2;0.0
72226;BME280;60130;52.250;5.048;2023-04-09T19:15:00;673.7;;;12.0;0.0
72226;BME280;60130;52.250;5.048;2023-04-09T19:20:00;673.7;;;11.8;0.0
72226;BME280;60130;52.250;5.048;2023-04-09T19:25:00;673.3;;;11.7;0.0
72226;BME280;60130;52.250;5.048;2023-04-09T19:30:00;673.5;;;11.7;0.0
72226;BME280;60130;52.250;5.048;2023-04-09T19:35:00;673.1;;;11.5;0.0
72226;BME280;60130;52.250;5.048;2023-04-09T19:40:00;673.2;;;11.4;0.0
72226;BME280;60130;52.250;5.048;2023-04-09T19:45:00;673.1;;;11.3;0.0
72226;BME280;60130;52.250;5.048;2023-04-09T19:50:00;673.0;;;11.2;0.0
72226;BME280;60130;52.250;5.048;2023-04-09T19:55:00;672.8;;;11.2;0.0
72226;BME280;60130;52.250;5.048;2023-04-09T20:00:00;672.8;;;11.2;0.0
72226;BME280;60130;52.250;5.048;2023-04-09T20:05:00;673.0;;;11.2;0.0
72226;BME280;60130;52.250;5.048;2023-04-09T20:10:00;672.9;;;11.1;0.0
72226;BME280;60130;52.250;5.048;2023-04-09T20:15:00;672.6;;;11.0;0.0
72226;BME280;60130;52.250;5.048;2023-04-09T20:20:00;672.8;;;11.0;0.0
72226;BME280;60130;52.250;5.048;2023-04-09T20:25:00;672.7;;;10.9;0.0
72226;BME280;60130;52.250;5.048;2023-04-09T20:30:00;672.7;;;10.9;0.0
72226;BME280;60130;52.250;5.048;2023-04-09T20:35:00;672.3;;;10.8;0.0
72226;BME280;60130;52.250;5.048;2023-04-09T20:40:00;672.5;;;10.8;0.0
72226;BME280;60130;52.250;5.048;2023-04-09T20:45:00;672.3;;;10.8;0.0
72226;BME280;60130;52.250;5.048;2023-04-09T20:50:00;672.5;;;10.7;0.0
72226;BME280;60130;52.250;5.048;2023-04-09T20:55:00;672.4;;;10.7;0.0
72226;BME280;60130;52.250;5.048;2023-04-09T21:00:00;672.3;;;10.6;0.0
72226;BME280;60130;52.250;5.048;2023-04-09T21:05:00;672.0;;;10.6;0.0
72226;BME280;60130;52.250;5.048;2023-04-09T21:10:00;672.1;;;10.6;0.0
72226;BME280;60130;52.250;5.048;2023-04-09T21:15:00;671.7;;;10.5;0.0
72226;BME280;60130;52.250;5.048;2023-04-09T21:20:00;671.9;;;10.4;0.0
72226;BME280;60130;52.250;5.048;2023-04-09T21:25:00;671.7;;;10.2;0.0
72226;BME280;60130;52.250;5.048;2023-04-09T21:30:00;671.3;;;10.1;0.0
72226;BME280;60130;52.250;5.048;2023-04-09T21:35:00;671.5;;;10.1;0.0
72226;BME280;60130;52.250;5.048;2023-04-09T21:40:00;671.5;;;10.1;0.0
72226;BME280;60130;52.250;5.048;2023-04-09T21:45:00;671.5;;;10.1;0.0
72226;BME280;60130;52.250;5.048;2023-04-09T21:50:01;671.5;;;10.1;0.0
72226;BME280;60130;52.250;5.048;2023-04-09T21:55:00;671.5;;;10.1;0.0
72226;BME280;60130;52.250;5.048;2023-04-09T22:00:00;671.8;;;10.1;0.0
72226;BME280;60130;52.250;5.048;2023-04-09T22:05:00;671.8;;;10.2;0.0
72226;BME280;60130;52.250;5.048;2023-04-09T22:10:00;671.5;;;10.2;0.0
72226;BME280;60130;52.250;5.048;2023-04-09T22:15:00;671.8;;;10.2;0.0
72226;BME280;60130;52.250;5.048;2023-04-09T22:20:00;671.6;;;10.2;0.0
72226;BME280;60130;52.250;5.048;2023-04-09T22:25:00;671.7;;;10.1;0.0
72226;BME280;60130;52.250;5.048;2023-04-09T22:30:00;671.6;;;10.1;0.0
72226;BME280;60130;52.250;5.048;2023-04-09T22:35:00;671.5;;;10.1;0.0
72226;BME280;60130;52.250;5.048;2023-04-09T22:40:00;671.6;;;10.1;0.0
72226;BME280;60130;52.250;5.048;2023-04-09T22:45:00;671.5;;;10.1;0.0
72226;BME280;60130;52.250;5.048;2023-04-09T22:50:00;671.7;;;10.1;0.0
72226;BME280;60130;52.250;5.048;2023-04-09T22:55:00;671.7;;;10.1;0.0
72226;BME280;60130;52.250;5.048;2023-04-09T23:00:00;671.6;;;10.0;0.0
72226;BME280;60130;52.250;5.048;2023-04-09T23:05:00;671.5;;;10.1;0.0
72226;BME280;60130;52.250;5.048;2023-04-09T23:10:00;671.4;;;10.0;0.0
72226;BME280;60130;52.250;5.048;2023-04-09T23:15:00;671.4;;;10.0;0.0
72226;BME280;60130;52.250;5.048;2023-04-09T23:20:00;671.2;;;9.9;0.0
72226;BME280;60130;52.250;5.048;2023-04-09T23:25:00;671.2;;;9.8;0.0
72226;BME280;60130;52.250;5.048;2023-04-09T23:30:00;671.2;;;9.8;0.0
72226;BME280;60130;52.250;5.048;2023-04-09T23:35:00;671.3;;;9.7;0.0
72226;BME280;60130;52.250;5.048;2023-04-09T23:40:00;671.1;;;9.7;0.0
72226;BME280;60130;52.250;5.048;2023-04-09T23:45:02;671.1;;;9.6;0.0
72226;BME280;60130;52.250;5.048;2023-04-09T23:50:01;671.1;;;9.6;0.0
72226;BME280;60130;52.250;5.048;2023-04-09T23:55:00;671.1;;;9.6;0.0
